CDT,Max TemperatureF,Mean TemperatureF,Min TemperatureF,Max Dew PointF,MeanDew PointF,Min DewpointF,Max Humidity, Mean Humidity, Min Humidity, Max Sea Level PressureIn, Mean Sea Level PressureIn, Min Sea Level PressureIn, Max VisibilityMiles, Mean VisibilityMiles, Min VisibilityMiles, Max Wind SpeedMPH, Mean Wind SpeedMPH, Max Gust SpeedMPH,PrecipitationIn, CloudCover, Events, WindDirDegrees
2012-10-1,80,66,51,55,49,45,94,70,28,29.96,29.92,29.88,10,10,5,20,8,28,0.00,1,,350
2012-10-2,77,65,51,48,45,39,82,59,26,30.04,29.96,29.91,10,10,10,15,10,,0.00,1,,340
2012-10-3,82,63,44,54,47,43,93,73,30,29.96,29.93,29.86,10,10,10,23,3,29,0.00,0,,172
2012-10-4,68,60,53,54,47,41,94,69,43,30.21,30.09,29.93,10,10,10,25,9,32,0.00,4,,37
2012-10-5,62,52,42,41,38,30,67,57,34,30.29,30.21,30.16,10,10,7,18,13,25,0.00,6,,28
2012-10-6,50,44,39,39,34,30,81,68,47,30.34,30.30,30.26,10,10,10,18,9,23,0.00,4,Rain,15
2012-10-7,53,43,33,36,31,25,93,76,33,30.35,30.29,30.20,10,10,10,14,7,,0.00,1,,326
2012-10-8,66,48,30,37,33,28,100,77,32,30.20,30.11,29.98,10,10,10,18,6,26,0.00,1,,170
2012-10-9,77,58,39,52,42,36,93,69,34,30.13,29.95,29.84,10,10,10,20,10,28,0.00,0,,144
2012-10-10,71,54,37,43,37,30,87,60,23,30.29,30.18,30.11,10,10,10,13,9,17,0.00,2,,63
2012-10-11,84,72,59,64,53,43,83,64,51,30.11,30.06,29.97,10,10,5,25,9,32,0.00,6,,170
2012-10-12,73,66,60,68,65,57,100,89,73,30.15,30.06,29.99,10,8,4,21,7,29,0.00,5,Rain-Thunderstorm,163
2012-10-13,77,68,60,70,63,45,94,80,43,29.95,29.84,29.67,10,9,7,24,15,34,0.00,2,Rain,191
2012-10-14,80,66,51,48,45,39,77,55,23,30.09,29.93,29.72,10,10,10,20,11,29,0.00,0,,294
2012-10-15,87,68,48,50,45,39,82,59,19,30.08,29.97,29.85,10,10,7,17,5,22,0.00,0,,197
2012-10-16,82,66,51,55,51,46,82,66,34,29.85,29.70,29.50,10,10,10,23,10,30,0.00,0,,174
2012-10-17,78,63,46,59,47,23,100,66,19,29.85,29.56,29.36,15,10,7,28,11,37,0.00,1,,214
2012-10-18,71,58,44,27,23,18,49,32,14,29.98,29.90,29.86,10,9,5,29,11,44,0.00,1,,299
2012-10-19,75,60,44,45,21,16,55,29,12,29.98,29.89,29.83,10,10,7,24,12,30,0.00,1,,299
2012-10-20,86,64,41,54,40,27,77,56,29,29.83,29.75,29.68,10,10,10,16,3,,0.00,0,,176
2012-10-21,91,73,55,68,62,55,100,79,41,29.72,29.69,29.64,10,8,0,26,12,36,0.00,1,Fog,157
2012-10-22,84,76,68,66,61,54,78,65,35,29.91,29.79,29.73,10,10,7,23,16,30,0.00,2,Rain,182
2012-10-23,89,76,62,68,64,59,94,75,46,29.91,29.78,29.71,10,10,10,28,14,39,0.00,2,,180
2012-10-24,80,74,68,68,65,63,94,78,61,29.82,29.76,29.67,10,10,10,28,17,34,0.00,2,,177
2012-10-25,71,55,39,63,48,32,78,68,44,30.27,29.91,29.64,10,10,7,29,19,36,0.00,2,Rain,303
2012-10-26,51,42,32,32,29,25,93,71,35,30.46,30.35,30.27,10,10,7,25,13,31,0.00,1,,3
2012-10-27,53,38,23,28,25,23,100,69,33,30.39,30.32,30.21,10,10,10,10,7,,0.00,1,,356
2012-10-28,60,44,28,30,26,23,87,64,29,30.32,30.25,30.20,10,10,10,12,3,,0.00,1,,129
2012-10-29,68,50,32,32,29,27,81,65,26,30.27,30.19,30.06,10,10,10,17,5,23,0.00,1,,181
2012-10-30,84,60,37,41,35,32,81,56,19,30.05,29.97,29.84,10,10,10,17,7,23,0.00,0,,204
2012-10-31,73,57,41,37,36,34,76,60,25,30.10,30.01,29.97,10,10,10,14,8,,0.00,0,,360